createdAt,value
2018-11-13T00:00:30.626Z,95.53
2018-11-13T00:02:59.701Z,91.43
2018-11-13T00:05:28.593Z,90.20
2018-11-13T00:07:57.336Z,87.23
2018-11-13T00:10:25.982Z,93.50
2018-11-13T00:12:54.686Z,91.63
2018-11-13T00:15:23.376Z,91.10
2018-11-13T00:17:52.014Z,91.93
2018-11-13T00:20:20.900Z,81.27
2018-11-13T00:22:49.619Z,92.83
2018-11-13T00:25:19.261Z,87.47
2018-11-13T00:27:47.966Z,84.47
2018-11-13T00:30:17.980Z,86.77
2018-11-13T00:32:53.390Z,89.07
2018-11-13T00:35:22.545Z,81.63
2018-11-13T00:37:51.365Z,81.30
2018-11-13T00:40:20.133Z,81.60
2018-11-13T00:42:49.373Z,81.43
2018-11-13T00:45:18.124Z,78.77
2018-11-13T00:47:46.853Z,85.40
2018-11-13T00:50:20.830Z,84.97
2018-11-13T00:52:49.892Z,85.07
2018-11-13T00:55:18.723Z,81.30
2018-11-13T00:57:48.225Z,79.30
2018-11-13T01:00:18.572Z,80.47
2018-11-13T01:02:47.257Z,77.63
2018-11-13T01:05:17.132Z,80.63
2018-11-13T01:07:47.006Z,83.57
2018-11-13T01:10:16.780Z,79.63
2018-11-13T01:12:46.161Z,80.70
2018-11-13T01:15:15.885Z,83.60
2018-11-13T01:17:45.388Z,80.33
2018-11-13T01:20:14.847Z,84.07
2018-11-13T01:22:43.572Z,84.80
2018-11-13T01:25:13.260Z,81.97
2018-11-13T01:27:42.486Z,78.43
2018-11-13T01:30:12.493Z,81.77
2018-11-13T01:32:41.997Z,75.10
2018-11-13T01:35:14.991Z,78.17
2018-11-13T01:37:43.721Z,77.57
2018-11-13T01:40:14.700Z,81.60
2018-11-13T01:42:43.823Z,87.10
2018-11-13T01:45:13.847Z,92.43
2018-11-13T01:47:42.589Z,86.67
2018-11-13T01:50:11.708Z,86.23
2018-11-13T01:52:40.334Z,81.53
2018-11-13T01:55:10.974Z,82.07
2018-11-13T01:57:39.681Z,86.80
2018-11-13T02:00:24.091Z,84.03
2018-11-13T02:02:54.001Z,85.40
2018-11-13T02:05:23.877Z,87.03
2018-11-13T02:07:53.599Z,78.57
2018-11-13T02:10:22.517Z,80.60
2018-11-13T02:12:52.007Z,82.23
2018-11-13T02:15:21.239Z,80.43
2018-11-13T02:17:49.985Z,75.73
2018-11-13T02:20:20.050Z,81.57
2018-11-13T02:22:48.755Z,82.47
2018-11-13T02:25:18.579Z,80.20
2018-11-13T02:27:47.692Z,83.17
2018-11-13T02:30:17.701Z,82.80
2018-11-13T02:32:47.025Z,86.17
2018-11-13T02:35:16.171Z,83.53
2018-11-13T02:37:44.998Z,83.23
2018-11-13T02:40:13.875Z,80.90
2018-11-13T02:42:42.594Z,86.93
2018-11-13T02:45:14.902Z,83.70
2018-11-13T02:47:43.785Z,81.00
2018-11-13T02:50:14.692Z,90.53
2018-11-13T02:52:43.403Z,86.50
2018-11-13T02:55:12.660Z,83.30
2018-11-13T02:57:41.807Z,87.33
2018-11-13T03:00:13.101Z,82.93
2018-11-13T03:02:41.762Z,81.10
2018-11-13T03:05:12.741Z,76.43
2018-11-13T03:07:41.635Z,77.30
2018-11-13T03:10:11.850Z,86.70
2018-11-13T03:12:40.532Z,89.07
2018-11-13T03:15:11.167Z,90.50
2018-11-13T03:17:39.859Z,107.67
2018-11-13T03:20:10.936Z,108.40
2018-11-13T03:22:39.918Z,99.03
2018-11-13T03:25:12.042Z,91.83
2018-11-13T03:27:40.733Z,90.00
2018-11-13T03:30:12.766Z,79.47
2018-11-13T03:32:41.802Z,84.80
2018-11-13T03:35:10.453Z,85.20
2018-11-13T03:37:39.101Z,83.10
2018-11-13T03:40:08.573Z,89.13
2018-11-13T03:42:37.500Z,77.97
2018-11-13T03:45:07.043Z,78.07
2018-11-13T03:47:35.850Z,79.57
2018-11-13T03:50:04.865Z,80.13
2018-11-13T03:52:33.589Z,82.73
2018-11-13T03:55:02.301Z,74.50
2018-11-13T03:57:30.929Z,68.73
2018-11-13T03:59:59.665Z,75.13
2018-11-13T04:02:28.341Z,73.90
2018-11-13T04:04:57.039Z,62.87
2018-11-13T04:07:25.713Z,76.17
2018-11-13T04:09:54.495Z,67.37
2018-11-13T04:12:23.146Z,64.20
2018-11-13T04:14:51.815Z,61.83
2018-11-13T04:17:20.496Z,77.67
2018-11-13T04:19:49.197Z,82.83
2018-11-13T04:22:17.880Z,73.07
2018-11-13T04:24:46.526Z,79.40
2018-11-13T04:27:15.178Z,79.07
2018-11-13T04:29:43.833Z,73.43
2018-11-13T04:32:12.493Z,81.63
2018-11-13T04:34:41.167Z,77.13
2018-11-13T04:37:09.900Z,79.03
2018-11-13T04:39:38.567Z,81.13
2018-11-13T04:42:07.827Z,89.93
2018-11-13T04:44:36.546Z,89.33
2018-11-13T04:47:05.661Z,94.10
2018-11-13T04:49:34.310Z,93.20
2018-11-13T04:52:02.995Z,106.77
2018-11-13T04:54:31.613Z,109.87
2018-11-13T04:57:00.257Z,119.47
2018-11-13T04:59:28.919Z,126.03
2018-11-13T05:01:57.591Z,110.40
2018-11-13T05:04:26.359Z,109.63
2018-11-13T05:06:55.013Z,104.23
2018-11-13T05:09:23.685Z,105.33
2018-11-13T05:11:52.405Z,108.00
2018-11-13T05:14:21.125Z,119.37
2018-11-13T05:16:50.494Z,107.23
2018-11-13T05:19:19.295Z,98.27
2018-11-13T05:21:47.999Z,108.43
2018-11-13T05:24:16.686Z,114.17
2018-11-13T05:26:45.325Z,129.47
2018-11-13T05:29:14.053Z,134.23
2018-11-13T05:31:42.712Z,131.53
2018-11-13T05:34:11.393Z,120.70
2018-11-13T05:36:40.068Z,132.27
2018-11-13T05:39:10.041Z,143.30
2018-11-13T05:41:38.779Z,144.37
2018-11-13T05:44:07.741Z,132.80
2018-11-13T05:46:36.461Z,148.13
2018-11-13T05:49:05.309Z,160.97
2018-11-13T05:51:33.938Z,147.43
2018-11-13T05:54:02.630Z,142.37
2018-11-13T05:56:31.260Z,147.77
2018-11-13T05:59:00.046Z,129.87
2018-11-13T06:01:28.741Z,120.03
2018-11-13T06:03:57.447Z,122.47
2018-11-13T06:06:26.121Z,135.53
2018-11-13T06:08:54.881Z,128.87
2018-11-13T06:11:23.598Z,122.30
2018-11-13T06:13:52.276Z,109.60
2018-11-13T06:16:21.039Z,118.03
2018-11-13T06:18:49.736Z,111.10
2018-11-13T06:21:18.548Z,114.57
2018-11-13T06:23:47.282Z,127.07
2018-11-13T06:26:16.328Z,129.40
2018-11-13T06:28:44.980Z,127.10
2018-11-13T06:31:13.650Z,133.87
2018-11-13T06:33:42.309Z,129.03
2018-11-13T06:36:10.978Z,113.10
2018-11-13T06:38:39.726Z,117.70
2018-11-13T06:41:08.385Z,100.87
2018-11-13T06:43:37.310Z,106.77
2018-11-13T06:46:06.483Z,91.30
2018-11-13T06:48:35.130Z,83.33
2018-11-13T06:51:04.082Z,89.33
2018-11-13T06:54:58.442Z,71.77
2018-11-13T06:57:27.213Z,64.07
2018-11-13T06:59:55.889Z,67.37
2018-11-13T07:02:24.537Z,69.77
2018-11-13T07:04:53.207Z,72.07
2018-11-13T07:07:21.900Z,70.33
2018-11-13T07:09:50.577Z,69.07
2018-11-13T07:12:19.261Z,70.63
2018-11-13T07:14:47.900Z,74.47
2018-11-13T07:17:16.521Z,66.90
2018-11-13T07:19:45.229Z,67.07
2018-11-13T07:22:13.909Z,66.43
2018-11-13T07:24:42.579Z,66.10
2018-11-13T07:27:11.209Z,63.53
2018-11-13T07:29:39.849Z,61.97
2018-11-13T07:32:08.489Z,62.80
2018-11-13T07:34:37.121Z,58.77
2018-11-13T07:37:06.178Z,59.23
2018-11-13T07:39:34.922Z,60.97
2018-11-13T07:42:03.653Z,62.47
2018-11-13T07:44:32.313Z,69.50
2018-11-13T07:47:01.107Z,69.67
2018-11-13T07:49:30.091Z,58.20
2018-11-13T07:51:58.769Z,71.00
2018-11-13T07:54:27.462Z,58.13
2018-11-13T07:56:56.433Z,61.37
2018-11-13T07:59:25.052Z,55.67
2018-11-13T08:01:53.690Z,58.17
2018-11-13T08:04:22.403Z,60.50
2018-11-13T08:06:51.135Z,61.03
2018-11-13T08:09:19.749Z,58.20
2018-11-13T08:11:48.456Z,62.07
2018-11-13T08:14:17.094Z,67.00
2018-11-13T08:16:45.825Z,74.40
2018-11-13T08:19:14.504Z,74.83
2018-11-13T08:21:43.157Z,75.87
2018-11-13T08:24:11.764Z,73.57
2018-11-13T08:26:40.482Z,74.97
2018-11-13T08:29:09.296Z,76.37
2018-11-13T08:31:37.958Z,77.97
2018-11-13T08:34:06.860Z,80.17
2018-11-13T08:36:35.537Z,80.47
2018-11-13T08:39:05.419Z,73.97
2018-11-13T08:41:34.100Z,75.30
2018-11-13T08:44:02.868Z,80.07
2018-11-13T08:46:31.507Z,85.13
2018-11-13T08:49:00.186Z,86.73
2018-11-13T08:51:28.941Z,77.40
2018-11-13T08:53:57.675Z,68.07
2018-11-13T08:56:26.646Z,67.00
2018-11-13T08:58:55.337Z,74.63
2018-11-13T09:01:24.095Z,73.80
2018-11-13T09:03:52.753Z,66.27
2018-11-13T09:06:21.417Z,73.53
2018-11-13T09:08:50.142Z,76.83
2018-11-13T09:11:19.110Z,76.07
2018-11-13T09:13:47.868Z,72.30
2018-11-13T09:16:16.923Z,76.10
2018-11-13T09:18:45.644Z,63.20
2018-11-13T09:21:14.394Z,61.33
2018-11-13T09:23:43.097Z,56.23
2018-11-13T09:26:11.733Z,49.80
2018-11-13T09:28:40.403Z,49.83
2018-11-13T09:31:09.090Z,49.40
2018-11-13T09:33:37.704Z,53.67
2018-11-13T09:36:06.522Z,53.80
2018-11-13T09:38:35.157Z,54.80
2018-11-13T09:41:03.856Z,50.73
2018-11-13T09:43:32.485Z,45.90
2018-11-13T09:46:01.435Z,42.87
2018-11-13T09:48:30.107Z,43.73
2018-11-13T09:50:58.874Z,38.53
2018-11-13T09:53:27.655Z,39.70
2018-11-13T09:55:56.226Z,39.83
2018-11-13T09:58:24.872Z,41.30
2018-11-13T10:00:53.957Z,38.27
2018-11-13T10:03:22.894Z,36.80
2018-11-13T10:05:51.149Z,31.10
2018-11-13T10:08:19.872Z,37.30
2018-11-13T10:10:48.615Z,36.43
2018-11-13T10:13:17.748Z,36.20
2018-11-13T10:15:46.453Z,34.87
2018-11-13T10:18:15.207Z,29.20
2018-11-13T10:20:43.870Z,34.83
2018-11-13T10:23:12.545Z,40.30
2018-11-13T10:25:41.149Z,36.67
2018-11-13T10:28:09.923Z,31.10
2018-11-13T10:30:38.561Z,29.70
2018-11-13T10:33:07.230Z,31.83
2018-11-13T10:35:36.125Z,32.10
2018-11-13T10:38:04.850Z,26.50
2018-11-13T10:40:33.675Z,30.33
2018-11-13T10:43:02.220Z,26.17
2018-11-13T10:45:30.825Z,31.57
2018-11-13T10:47:59.488Z,27.97
2018-11-13T10:50:28.216Z,26.33
2018-11-13T10:52:56.923Z,29.83
2018-11-13T10:55:25.568Z,30.53
2018-11-13T10:57:54.275Z,26.40
2018-11-13T11:00:28.182Z,33.13
2018-11-13T11:03:02.026Z,26.20
2018-11-13T11:05:30.674Z,25.13
2018-11-13T11:07:59.355Z,27.33
2018-11-13T11:10:28.033Z,23.10
2018-11-13T11:12:56.803Z,27.67
2018-11-13T11:15:25.365Z,24.13
2018-11-13T11:17:53.992Z,25.70
2018-11-13T11:20:22.710Z,22.17
2018-11-13T11:22:51.586Z,24.43
2018-11-13T11:25:20.306Z,20.77
2018-11-13T11:27:48.904Z,22.27
2018-11-13T11:30:17.760Z,25.50
2018-11-13T11:32:46.403Z,21.77
2018-11-13T11:35:15.054Z,21.40
2018-11-13T11:37:43.714Z,23.73
2018-11-13T11:40:12.904Z,23.93
2018-11-13T11:42:41.584Z,22.10
2018-11-13T11:45:12.243Z,21.03
2018-11-13T11:47:41.008Z,23.23
2018-11-13T11:50:10.666Z,20.77
2018-11-13T11:52:39.363Z,24.33
2018-11-13T11:55:08.569Z,25.10
2018-11-13T11:57:37.198Z,23.80
2018-11-13T12:00:13.162Z,23.50
2018-11-13T12:02:43.197Z,20.17
2018-11-13T12:05:11.845Z,21.40
2018-11-13T12:07:40.545Z,22.53
2018-11-13T12:10:11.424Z,23.27
2018-11-13T12:12:40.379Z,20.43
2018-11-13T12:15:10.267Z,20.00
2018-11-13T12:17:38.979Z,20.77
2018-11-13T12:20:09.319Z,21.07
2018-11-13T12:22:38.013Z,20.47
2018-11-13T12:25:09.091Z,23.57
2018-11-13T12:27:38.154Z,22.23
2018-11-13T12:30:12.185Z,22.67
2018-11-13T12:32:40.850Z,22.80
2018-11-13T12:35:11.301Z,22.63
2018-11-13T12:37:40.070Z,21.27
2018-11-13T12:40:10.974Z,22.87
2018-11-13T12:42:39.684Z,19.70
2018-11-13T12:45:09.132Z,23.37
2018-11-13T12:47:37.790Z,22.60
2018-11-13T12:50:07.914Z,22.33
2018-11-13T12:52:36.618Z,20.30
2018-11-13T12:55:06.917Z,20.60
2018-11-13T12:57:35.580Z,21.40
2018-11-13T13:00:07.689Z,20.73
2018-11-13T13:02:36.357Z,20.43
2018-11-13T13:05:05.386Z,21.57
2018-11-13T13:07:34.058Z,21.90
2018-11-13T13:10:02.689Z,22.30
2018-11-13T13:12:31.362Z,23.83
2018-11-13T13:15:00.078Z,23.40
2018-11-13T13:17:28.790Z,20.00
2018-11-13T13:19:57.476Z,22.83
2018-11-13T13:22:26.235Z,20.17
2018-11-13T13:24:54.904Z,20.70
2018-11-13T13:27:23.655Z,21.77
2018-11-13T13:29:52.421Z,18.73
2018-11-13T13:32:21.105Z,21.23
2018-11-13T13:34:49.729Z,20.60
2018-11-13T13:37:18.363Z,23.00
2018-11-13T13:39:47.044Z,19.23
2018-11-13T13:42:15.722Z,18.97
2018-11-13T13:44:44.427Z,23.10
2018-11-13T13:47:13.114Z,21.77
2018-11-13T13:49:41.786Z,21.10
2018-11-13T13:52:10.427Z,20.20
2018-11-13T13:54:39.067Z,20.17
2018-11-13T13:57:07.730Z,20.70
2018-11-13T13:59:36.461Z,21.60
2018-11-13T14:02:05.213Z,26.70
2018-11-13T14:04:33.890Z,21.70
2018-11-13T14:07:02.494Z,23.00
2018-11-13T14:09:31.138Z,22.17
2018-11-13T14:11:59.762Z,20.67
2018-11-13T14:14:28.426Z,21.40
2018-11-13T14:16:57.082Z,19.37
2018-11-13T14:19:25.802Z,19.27
2018-11-13T14:21:54.512Z,19.60
2018-11-13T14:24:23.218Z,20.60
2018-11-13T14:26:51.877Z,21.10
2018-11-13T14:29:20.550Z,23.10
2018-11-13T14:31:49.271Z,22.87
2018-11-13T14:34:17.943Z,30.50
2018-11-13T14:36:46.600Z,31.83
2018-11-13T14:39:15.278Z,26.30
2018-11-13T14:41:43.892Z,26.23
2018-11-13T14:44:12.504Z,30.43
2018-11-13T14:46:41.322Z,27.40
2018-11-13T14:49:09.837Z,26.07
2018-11-13T14:51:38.525Z,29.53
2018-11-13T14:54:07.247Z,31.53
2018-11-13T14:56:35.914Z,35.03
2018-11-13T14:59:04.584Z,35.13
2018-11-13T15:01:33.254Z,30.73
2018-11-13T15:04:01.965Z,33.10
2018-11-13T15:06:30.690Z,37.97
2018-11-13T15:08:59.779Z,38.70
2018-11-13T15:11:28.051Z,45.50
2018-11-13T15:13:56.679Z,43.03
2018-11-13T15:16:25.390Z,47.80
2018-11-13T15:18:54.054Z,46.93
2018-11-13T15:21:22.753Z,50.50
2018-11-13T15:23:51.419Z,45.27
2018-11-13T15:26:20.158Z,47.47
2018-11-13T15:28:48.805Z,54.13
2018-11-13T15:31:17.459Z,54.30
2018-11-13T15:33:46.170Z,49.47
2018-11-13T15:36:14.889Z,54.20
2018-11-13T15:38:43.615Z,54.10
2018-11-13T15:41:12.505Z,49.23
2018-11-13T15:43:41.436Z,52.10
2018-11-13T15:46:10.130Z,53.97
2018-11-13T15:48:38.801Z,57.07
2018-11-13T15:51:09.122Z,55.87
2018-11-13T15:53:36.204Z,48.20
2018-11-13T15:56:04.892Z,53.60
2018-11-13T15:58:33.692Z,49.47
2018-11-13T16:01:02.341Z,57.13
2018-11-13T16:03:35.602Z,67.07
2018-11-13T16:06:04.356Z,52.03
2018-11-13T16:08:32.949Z,57.97
2018-11-13T16:11:01.620Z,56.53
2018-11-13T16:13:30.321Z,51.07
2018-11-13T16:15:58.954Z,54.73
2018-11-13T16:18:28.965Z,52.93
2018-11-13T16:20:57.594Z,60.10
2018-11-13T16:23:26.213Z,57.63
2018-11-13T16:25:54.883Z,70.43
2018-11-13T16:28:23.554Z,73.60
2018-11-13T16:30:52.525Z,63.60
2018-11-13T16:33:21.005Z,56.13
2018-11-13T16:35:49.751Z,65.63
2018-11-13T16:38:18.572Z,67.17
2018-11-13T16:40:47.096Z,62.67
2018-11-13T16:43:15.772Z,58.07
2018-11-13T16:45:44.398Z,69.10
2018-11-13T16:48:13.128Z,60.97
2018-11-13T16:50:43.496Z,62.40
2018-11-13T16:53:12.301Z,63.20
2018-11-13T16:55:46.022Z,56.40
2018-11-13T16:58:15.720Z,59.20
2018-11-13T17:00:44.538Z,55.57
2018-11-13T17:03:13.147Z,56.47
2018-11-13T17:05:41.962Z,54.10
2018-11-13T17:08:10.659Z,58.60
2018-11-13T17:10:41.277Z,55.13
2018-11-13T17:13:10.447Z,55.10
2018-11-13T17:15:39.334Z,57.80
2018-11-13T17:18:08.196Z,55.10
2018-11-13T17:20:37.667Z,59.00
2018-11-13T17:23:06.523Z,59.10
2018-11-13T17:25:36.745Z,58.63
2018-11-13T17:28:05.631Z,61.53
2018-11-13T17:30:37.519Z,59.57
2018-11-13T17:33:08.540Z,71.07
2018-11-13T17:35:37.986Z,63.17
2018-11-13T17:38:07.034Z,72.50
2018-11-13T17:40:36.662Z,72.37
2018-11-13T17:43:06.703Z,75.00
2018-11-13T17:45:36.640Z,80.07
2018-11-13T17:48:06.033Z,73.07
2018-11-13T17:50:37.535Z,77.43
2018-11-13T17:53:07.233Z,79.77
2018-11-13T17:55:35.913Z,74.70
2018-11-13T17:58:06.472Z,86.53
2018-11-13T18:00:36.330Z,82.20
2018-11-13T18:03:05.981Z,80.23
2018-11-13T18:05:35.182Z,76.07
2018-11-13T18:08:04.592Z,82.80
2018-11-13T18:10:34.006Z,83.47
2018-11-13T18:13:02.702Z,80.00
2018-11-13T18:15:31.671Z,77.10
2018-11-13T18:18:00.455Z,78.13
2018-11-13T18:20:30.497Z,81.77
2018-11-13T18:22:59.137Z,72.13
2018-11-13T18:25:28.190Z,78.77
2018-11-13T18:27:57.838Z,78.33
2018-11-13T18:30:29.315Z,82.53
2018-11-13T18:32:58.718Z,90.57
2018-11-13T18:35:29.681Z,94.43
2018-11-13T18:37:59.315Z,109.47
2018-11-13T18:40:28.140Z,103.77
2018-11-13T18:42:58.149Z,112.07
2018-11-13T18:45:29.206Z,102.97
2018-11-13T18:47:57.878Z,102.43
2018-11-13T18:50:30.598Z,72.57
2018-11-13T18:52:59.319Z,86.03
2018-11-13T18:55:28.098Z,82.57
2018-11-13T18:57:57.057Z,84.77
2018-11-13T19:00:29.957Z,108.57
2018-11-13T19:02:59.330Z,74.40
2018-11-13T19:05:28.254Z,104.97
2018-11-13T19:07:57.134Z,120.43
2018-11-13T19:10:35.848Z,110.73
2018-11-13T19:13:06.453Z,111.47
2018-11-13T19:15:37.580Z,91.70
2018-11-13T19:18:07.159Z,91.70
2018-11-13T19:20:35.785Z,99.30
2018-11-13T19:23:04.674Z,89.27
2018-11-13T19:25:34.362Z,99.77
2018-11-13T19:28:03.088Z,82.67
2018-11-13T19:30:31.749Z,93.70
2018-11-13T19:33:00.942Z,102.73
2018-11-13T19:35:29.724Z,80.73
2018-11-13T19:37:58.233Z,89.73
2018-11-13T19:40:29.186Z,85.23
2018-11-13T19:42:58.871Z,77.37
2018-11-13T19:45:27.542Z,81.57
2018-11-13T19:47:56.185Z,81.67
2018-11-13T19:50:26.345Z,68.73
2018-11-13T19:52:54.980Z,65.50
2018-11-13T19:55:24.498Z,73.87
2018-11-13T19:57:53.216Z,79.33
2018-11-13T20:00:25.282Z,66.80
2018-11-13T20:02:54.939Z,79.23
2018-11-13T20:05:23.669Z,82.93
2018-11-13T20:07:52.333Z,87.23
2018-11-13T20:10:22.323Z,83.53
2018-11-13T20:12:51.823Z,78.33
2018-11-13T20:15:21.462Z,78.20
2018-11-13T20:17:50.109Z,76.00
2018-11-13T20:20:24.192Z,70.17
2018-11-13T20:22:53.851Z,79.30
2018-11-13T20:25:23.770Z,70.07
2018-11-13T20:27:52.461Z,89.40
2018-11-13T20:30:22.613Z,96.73
2018-11-13T20:32:51.294Z,100.13
2018-11-13T20:35:19.911Z,102.53
2018-11-13T20:37:49.134Z,91.33
2018-11-13T20:40:21.565Z,76.90
2018-11-13T20:42:51.463Z,80.27
2018-11-13T20:45:20.317Z,71.13
2018-11-13T20:47:48.959Z,69.17
2018-11-13T20:50:19.736Z,60.97
2018-11-13T20:52:48.616Z,57.03
2018-11-13T20:55:17.717Z,67.77
2018-11-13T20:57:46.393Z,62.00
2018-11-13T21:00:20.363Z,76.57
2018-11-13T21:02:49.508Z,76.03
2018-11-13T21:05:18.401Z,76.23
2018-11-13T21:07:47.134Z,78.57
2018-11-13T21:10:17.422Z,76.43
2018-11-13T21:12:46.545Z,69.40
2018-11-13T21:15:16.575Z,81.00
2018-11-13T21:17:45.369Z,67.43
2018-11-13T21:20:15.241Z,72.73
2018-11-13T21:22:43.862Z,64.20
2018-11-13T21:25:14.256Z,65.47
2018-11-13T21:27:42.913Z,64.40
2018-11-13T21:30:14.115Z,67.93
2018-11-13T21:32:43.453Z,71.10
2018-11-13T21:35:12.790Z,78.07
2018-11-13T21:37:42.798Z,81.77
2018-11-13T21:40:13.424Z,72.77
2018-11-13T21:42:42.368Z,81.83
2018-11-13T21:45:11.929Z,69.97
2018-11-13T21:47:40.651Z,70.50
2018-11-13T21:50:11.081Z,76.47
2018-11-13T21:52:39.775Z,83.70
2018-11-13T21:55:11.273Z,84.57
2018-11-13T21:57:40.013Z,80.77
2018-11-13T22:00:17.032Z,84.87
2018-11-13T22:02:49.125Z,81.87
2018-11-13T22:05:17.793Z,79.53
2018-11-13T22:07:46.681Z,77.43
2018-11-13T22:10:15.343Z,75.60
2018-11-13T22:12:44.676Z,75.37
2018-11-13T22:15:14.933Z,75.80
2018-11-13T22:17:44.191Z,76.67
2018-11-13T22:20:14.471Z,77.40
2018-11-13T22:22:43.183Z,70.33
2018-11-13T22:25:14.305Z,75.30
2018-11-13T22:27:43.471Z,68.97
2018-11-13T22:30:14.183Z,68.73
2018-11-13T22:32:43.346Z,70.37
2018-11-13T22:35:13.121Z,70.87
2018-11-13T22:37:41.709Z,71.83
2018-11-13T22:40:12.968Z,70.80
2018-11-13T22:42:41.698Z,69.57
2018-11-13T22:45:13.812Z,70.70
2018-11-13T22:47:42.512Z,70.67
2018-11-13T22:50:14.137Z,69.17
2018-11-13T22:52:43.543Z,68.37
2018-11-13T22:55:13.047Z,72.37
2018-11-13T22:57:42.681Z,73.40
2018-11-13T23:00:18.605Z,70.77
2018-11-13T23:02:48.591Z,72.37
2018-11-13T23:05:17.210Z,74.33
2018-11-13T23:07:45.869Z,75.17
2018-11-13T23:10:15.093Z,77.50
2018-11-13T23:12:44.337Z,75.33
2018-11-13T23:15:17.504Z,74.07
2018-11-13T23:17:46.161Z,75.47
2018-11-13T23:20:16.218Z,72.10
2018-11-13T23:22:44.901Z,76.07
2018-11-13T23:25:14.661Z,78.80
2018-11-13T23:27:44.097Z,80.17
2018-11-13T23:30:16.096Z,79.63
2018-11-13T23:32:45.136Z,75.93
2018-11-13T23:35:14.336Z,75.87
2018-11-13T23:37:44.010Z,76.67
2018-11-13T23:40:15.809Z,77.37
2018-11-13T23:42:44.748Z,72.83
2018-11-13T23:45:14.413Z,71.37
2018-11-13T23:47:43.509Z,67.57
2018-11-13T23:50:12.512Z,73.27
2018-11-13T23:52:41.336Z,66.47
2018-11-13T23:55:11.233Z,68.10
2018-11-13T23:57:40.199Z,65.80
